THY250 LTAC-LTAJ
Flight info
| Callsign | THY250 |
|---|---|
| Flight time | 0h 52m |
| Altitude | 27000 |
| Route | YUCEL A17 BELSU/N0412F310 UA17 REMPO/N0386F270 L605 ASBOM |
| Aircraft | A320/M-SDE3FGHIRWY/LB1 |
Departure
| Time | 2026-04-24 20:13 |
|---|---|
| Airport | Esenboğa International Airport (LTAC) |
Arrival
| Time | 2026-04-24 21:05 |
|---|---|
| Airport | Gaziantep Oğuzeli International Airport (LTAJ) |
| Time | Latitude | Longitude | Altitude | Speed | Heading |
|---|---|---|---|---|---|
| 2026-04-24 19:45 | 40.11701 | 32.99427 | 3113 ft | 0 kts | 168° |
| 2026-04-24 20:00 | 40.11716 | 32.99423 | 3113 ft | 4 kts | 165° |
| 2026-04-24 20:01 | 40.11742 | 32.99413 | 3113 ft | 4 kts | 167° |
| 2026-04-24 20:01 | 40.11766 | 32.99411 | 3113 ft | 4 kts | 216° |
| 2026-04-24 20:01 | 40.11771 | 32.99417 | 3113 ft | 0 kts | 256° |
| 2026-04-24 20:05 | 40.11771 | 32.99415 | 3113 ft | 1 kts | 256° |
| 2026-04-24 20:05 | 40.11767 | 32.99397 | 3113 ft | 5 kts | 256° |
| 2026-04-24 20:05 | 40.11745 | 32.99296 | 3113 ft | 16 kts | 251° |
| 2026-04-24 20:05 | 40.11714 | 32.99152 | 3113 ft | 17 kts | 282° |
| 2026-04-24 20:06 | 40.11797 | 32.99058 | 3113 ft | 16 kts | 317° |
| 2026-04-24 20:06 | 40.11896 | 32.99086 | 3114 ft | 16 kts | 34° |
| 2026-04-24 20:06 | 40.11992 | 32.99177 | 3115 ft | 18 kts | 37° |
| 2026-04-24 20:06 | 40.12091 | 32.99276 | 3117 ft | 18 kts | 37° |
| 2026-04-24 20:07 | 40.12159 | 32.99344 | 3118 ft | 19 kts | 37° |
| 2026-04-24 20:07 | 40.12308 | 32.99481 | 3119 ft | 20 kts | 34° |
| 2026-04-24 20:07 | 40.12424 | 32.99590 | 3120 ft | 21 kts | 36° |
| 2026-04-24 20:07 | 40.12543 | 32.99705 | 3122 ft | 22 kts | 37° |
| 2026-04-24 20:08 | 40.12666 | 32.99824 | 3123 ft | 23 kts | 36° |
| 2026-04-24 20:08 | 40.12796 | 32.99948 | 3119 ft | 24 kts | 36° |
| 2026-04-24 20:08 | 40.12930 | 33.00077 | 3121 ft | 24 kts | 37° |
| 2026-04-24 20:08 | 40.13068 | 33.00208 | 3125 ft | 25 kts | 36° |
| 2026-04-24 20:09 | 40.13210 | 33.00342 | 3126 ft | 25 kts | 36° |
| 2026-04-24 20:09 | 40.13352 | 33.00480 | 3130 ft | 26 kts | 37° |
| 2026-04-24 20:09 | 40.13497 | 33.00620 | 3131 ft | 26 kts | 37° |
| 2026-04-24 20:09 | 40.13645 | 33.00761 | 3133 ft | 27 kts | 34° |
| 2026-04-24 20:10 | 40.13796 | 33.00905 | 3134 ft | 27 kts | 36° |
| 2026-04-24 20:10 | 40.13948 | 33.01052 | 3135 ft | 27 kts | 35° |
| 2026-04-24 20:10 | 40.14095 | 33.01004 | 3136 ft | 23 kts | 296° |
| 2026-04-24 20:10 | 40.14173 | 33.00823 | 3136 ft | 11 kts | 305° |
| 2026-04-24 20:11 | 40.14182 | 33.00807 | 3136 ft | 2 kts | 306° |
| 2026-04-24 20:11 | 40.14211 | 33.00750 | 3136 ft | 13 kts | 297° |
| 2026-04-24 20:11 | 40.14181 | 33.00661 | 3136 ft | 0 kts | 214° |
| 2026-04-24 20:11 | 40.14180 | 33.00661 | 3136 ft | 1 kts | 214° |
| 2026-04-24 20:12 | 40.14056 | 33.00546 | 3135 ft | 55 kts | 216° |
| 2026-04-24 20:12 | 40.13568 | 33.00080 | 3129 ft | 115 kts | 216° |
| 2026-04-24 20:12 | 40.12801 | 32.99349 | 3122 ft | 159 kts | 215° |
| 2026-04-24 20:12 | 40.11817 | 32.98453 | 3395 ft | 179 kts | 214° |
| 2026-04-24 20:13 | 40.10780 | 32.97510 | 4020 ft | 184 kts | 215° |
| 2026-04-24 20:13 | 40.09752 | 32.96526 | 4780 ft | 183 kts | 218° |
| 2026-04-24 20:13 | 40.08703 | 32.95494 | 5203 ft | 198 kts | 218° |
| 2026-04-24 20:13 | 40.07536 | 32.94354 | 5422 ft | 222 kts | 217° |
| 2026-04-24 20:14 | 40.06227 | 32.93087 | 5739 ft | 246 kts | 217° |
| 2026-04-24 20:14 | 40.04780 | 32.91699 | 6221 ft | 267 kts | 217° |
| 2026-04-24 20:14 | 40.03257 | 32.90252 | 7011 ft | 273 kts | 217° |
| 2026-04-24 20:14 | 40.01710 | 32.88794 | 7879 ft | 275 kts | 218° |
| 2026-04-24 20:15 | 40.00148 | 32.87335 | 8780 ft | 277 kts | 218° |
| 2026-04-24 20:15 | 39.98581 | 32.85876 | 9703 ft | 277 kts | 219° |
| 2026-04-24 20:15 | 39.96983 | 32.84432 | 10380 ft | 288 kts | 213° |
| 2026-04-24 20:15 | 39.94971 | 32.83700 | 10606 ft | 320 kts | 183° |
| 2026-04-24 20:16 | 39.92712 | 32.84225 | 11048 ft | 339 kts | 162° |
| 2026-04-24 20:16 | 39.90655 | 32.85796 | 11678 ft | 350 kts | 139° |
| 2026-04-24 20:16 | 39.89152 | 32.88320 | 12350 ft | 357 kts | 122° |
| 2026-04-24 20:16 | 39.87887 | 32.91117 | 13081 ft | 360 kts | 121° |
| 2026-04-24 20:17 | 39.86642 | 32.93966 | 13790 ft | 364 kts | 120° |
| 2026-04-24 20:17 | 39.84128 | 32.99764 | 14995 ft | 372 kts | 120° |
| 2026-04-24 20:17 | 39.82844 | 33.02701 | 15569 ft | 376 kts | 120° |
| 2026-04-24 20:18 | 39.81980 | 33.04657 | 15952 ft | 378 kts | 121° |
| 2026-04-24 20:18 | 39.80204 | 33.08649 | 16704 ft | 384 kts | 121° |
| 2026-04-24 20:18 | 39.78859 | 33.11666 | 17279 ft | 388 kts | 121° |
| 2026-04-24 20:18 | 39.77502 | 33.14712 | 17846 ft | 392 kts | 121° |
| 2026-04-24 20:19 | 39.76129 | 33.17795 | 18419 ft | 395 kts | 121° |
| 2026-04-24 20:19 | 39.74746 | 33.20899 | 18910 ft | 399 kts | 121° |
| 2026-04-24 20:19 | 39.73348 | 33.24036 | 19443 ft | 403 kts | 122° |
| 2026-04-24 20:19 | 39.71942 | 33.27193 | 19973 ft | 406 kts | 122° |
| 2026-04-24 20:20 | 39.70522 | 33.30379 | 20507 ft | 409 kts | 122° |
| 2026-04-24 20:20 | 39.69085 | 33.33593 | 20996 ft | 412 kts | 122° |
| 2026-04-24 20:20 | 39.67638 | 33.36826 | 21472 ft | 416 kts | 122° |
| 2026-04-24 20:20 | 39.66181 | 33.40082 | 21939 ft | 419 kts | 122° |
| 2026-04-24 20:21 | 39.64730 | 33.43321 | 22400 ft | 422 kts | 122° |
| 2026-04-24 20:21 | 39.63247 | 33.46623 | 22877 ft | 425 kts | 122° |
| 2026-04-24 20:21 | 39.61752 | 33.49944 | 23360 ft | 428 kts | 122° |
| 2026-04-24 20:21 | 39.60248 | 33.53283 | 23797 ft | 431 kts | 123° |
| 2026-04-24 20:22 | 39.58727 | 33.56653 | 24186 ft | 434 kts | 123° |
| 2026-04-24 20:22 | 39.57041 | 33.59898 | 24559 ft | 434 kts | 131° |
| 2026-04-24 20:22 | 39.55144 | 33.62959 | 24939 ft | 436 kts | 132° |
| 2026-04-24 20:22 | 39.53236 | 33.66031 | 25320 ft | 439 kts | 132° |
| 2026-04-24 20:23 | 39.51314 | 33.69125 | 25694 ft | 442 kts | 133° |
| 2026-04-24 20:23 | 39.49372 | 33.72244 | 26029 ft | 446 kts | 133° |
| 2026-04-24 20:23 | 39.47444 | 33.75338 | 26384 ft | 449 kts | 134° |
| 2026-04-24 20:23 | 39.45478 | 33.78497 | 26754 ft | 452 kts | 134° |
| 2026-04-24 20:24 | 39.44135 | 33.80638 | 26960 ft | 454 kts | 134° |
| 2026-04-24 20:24 | 39.41498 | 33.84776 | 27050 ft | 442 kts | 135° |
| 2026-04-24 20:24 | 39.39541 | 33.87811 | 27051 ft | 437 kts | 135° |
| 2026-04-24 20:24 | 39.37598 | 33.90812 | 27054 ft | 435 kts | 135° |
| 2026-04-24 20:25 | 39.35654 | 33.93812 | 27054 ft | 434 kts | 135° |
| 2026-04-24 20:25 | 39.33718 | 33.96804 | 27049 ft | 435 kts | 136° |
| 2026-04-24 20:25 | 39.31778 | 33.99804 | 27053 ft | 435 kts | 136° |
| 2026-04-24 20:25 | 39.29835 | 34.02809 | 27052 ft | 436 kts | 136° |
| 2026-04-24 20:26 | 39.27898 | 34.05810 | 27056 ft | 436 kts | 136° |
| 2026-04-24 20:26 | 39.25956 | 34.08820 | 27053 ft | 436 kts | 136° |
| 2026-04-24 20:26 | 39.24016 | 34.11820 | 27032 ft | 436 kts | 136° |
| 2026-04-24 20:26 | 39.22067 | 34.14826 | 27040 ft | 436 kts | 136° |
| 2026-04-24 20:27 | 39.20118 | 34.17824 | 27049 ft | 436 kts | 136° |
| 2026-04-24 20:27 | 39.18165 | 34.20823 | 27054 ft | 436 kts | 136° |
| 2026-04-24 20:27 | 39.16212 | 34.23819 | 27044 ft | 437 kts | 136° |
| 2026-04-24 20:27 | 39.14257 | 34.26818 | 27043 ft | 437 kts | 136° |
| 2026-04-24 20:28 | 39.12466 | 34.30021 | 27045 ft | 445 kts | 126° |
| 2026-04-24 20:28 | 39.10883 | 34.33449 | 27047 ft | 443 kts | 130° |
| 2026-04-24 20:28 | 39.08995 | 34.36537 | 27050 ft | 438 kts | 136° |
| 2026-04-24 20:28 | 39.07054 | 34.39499 | 27056 ft | 439 kts | 137° |
| 2026-04-24 20:29 | 39.05723 | 34.41523 | 27058 ft | 439 kts | 137° |
| 2026-04-24 20:29 | 39.03118 | 34.45502 | 27068 ft | 439 kts | 136° |
| 2026-04-24 20:29 | 39.01157 | 34.48517 | 27069 ft | 440 kts | 137° |
| 2026-04-24 20:29 | 38.99200 | 34.51534 | 27068 ft | 440 kts | 136° |
| 2026-04-24 20:30 | 38.97243 | 34.54557 | 27069 ft | 440 kts | 136° |
| 2026-04-24 20:30 | 38.95280 | 34.57586 | 27070 ft | 441 kts | 136° |
| 2026-04-24 20:30 | 38.93316 | 34.60613 | 27070 ft | 441 kts | 136° |
| 2026-04-24 20:30 | 38.91350 | 34.63637 | 27071 ft | 441 kts | 137° |
| 2026-04-24 20:31 | 38.89386 | 34.66655 | 27075 ft | 441 kts | 137° |
| 2026-04-24 20:31 | 38.87414 | 34.69677 | 27064 ft | 441 kts | 137° |
| 2026-04-24 20:31 | 38.85439 | 34.72694 | 27067 ft | 441 kts | 137° |
| 2026-04-24 20:31 | 38.83464 | 34.75713 | 27029 ft | 441 kts | 137° |
| 2026-04-24 20:32 | 38.81491 | 34.78729 | 27042 ft | 442 kts | 137° |
| 2026-04-24 20:32 | 38.79514 | 34.81745 | 27054 ft | 442 kts | 137° |
| 2026-04-24 20:32 | 38.77536 | 34.84761 | 27045 ft | 442 kts | 137° |
| 2026-04-24 20:32 | 38.75557 | 34.87776 | 27053 ft | 442 kts | 137° |
| 2026-04-24 20:33 | 38.73602 | 34.90755 | 27051 ft | 442 kts | 137° |
| 2026-04-24 20:33 | 38.71622 | 34.93773 | 27049 ft | 442 kts | 137° |
| 2026-04-24 20:33 | 38.69640 | 34.96786 | 27059 ft | 442 kts | 137° |
| 2026-04-24 20:33 | 38.67657 | 34.99795 | 27044 ft | 442 kts | 137° |
| 2026-04-24 20:34 | 38.66339 | 35.01792 | 27050 ft | 442 kts | 137° |
| 2026-04-24 20:34 | 38.64353 | 35.04799 | 27042 ft | 443 kts | 137° |
| 2026-04-24 20:34 | 38.62368 | 35.07805 | 27052 ft | 443 kts | 137° |
| 2026-04-24 20:34 | 38.60377 | 35.10815 | 27046 ft | 443 kts | 137° |
| 2026-04-24 20:35 | 38.58384 | 35.13822 | 27044 ft | 443 kts | 137° |
| 2026-04-24 20:35 | 38.56393 | 35.16828 | 27035 ft | 443 kts | 137° |
| 2026-04-24 20:35 | 38.54402 | 35.19835 | 27040 ft | 443 kts | 137° |
| 2026-04-24 20:35 | 38.52414 | 35.22837 | 27043 ft | 443 kts | 137° |
| 2026-04-24 20:36 | 38.50407 | 35.25840 | 27034 ft | 443 kts | 138° |
| 2026-04-24 20:36 | 38.48393 | 35.28806 | 27039 ft | 442 kts | 139° |
| 2026-04-24 20:36 | 38.46368 | 35.31755 | 27047 ft | 442 kts | 139° |
| 2026-04-24 20:36 | 38.44336 | 35.34701 | 27019 ft | 441 kts | 138° |
| 2026-04-24 20:37 | 38.42315 | 35.37636 | 27032 ft | 440 kts | 138° |
| 2026-04-24 20:37 | 38.40293 | 35.40571 | 27055 ft | 440 kts | 138° |
| 2026-04-24 20:37 | 38.38281 | 35.43498 | 27056 ft | 439 kts | 138° |
| 2026-04-24 20:37 | 38.36272 | 35.46426 | 27058 ft | 438 kts | 138° |
| 2026-04-24 20:38 | 38.34263 | 35.49355 | 27059 ft | 438 kts | 138° |
| 2026-04-24 20:38 | 38.32258 | 35.52273 | 27043 ft | 437 kts | 138° |
| 2026-04-24 20:38 | 38.30254 | 35.55185 | 27045 ft | 436 kts | 138° |
| 2026-04-24 20:38 | 38.28254 | 35.58084 | 27036 ft | 436 kts | 138° |
| 2026-04-24 20:39 | 38.26253 | 35.60981 | 27045 ft | 436 kts | 138° |
| 2026-04-24 20:39 | 38.24250 | 35.63882 | 27043 ft | 436 kts | 138° |
| 2026-04-24 20:39 | 38.22252 | 35.66777 | 27043 ft | 436 kts | 138° |
| 2026-04-24 20:39 | 38.20252 | 35.69668 | 27043 ft | 436 kts | 138° |
| 2026-04-24 20:40 | 38.18249 | 35.72557 | 27044 ft | 435 kts | 139° |
| 2026-04-24 20:40 | 38.16244 | 35.75445 | 27016 ft | 435 kts | 138° |
| 2026-04-24 20:40 | 38.14244 | 35.78327 | 27023 ft | 435 kts | 138° |
| 2026-04-24 20:40 | 38.12248 | 35.81206 | 27027 ft | 435 kts | 139° |
| 2026-04-24 20:41 | 38.10245 | 35.84090 | 27028 ft | 434 kts | 139° |
| 2026-04-24 20:41 | 38.08248 | 35.86964 | 27026 ft | 434 kts | 139° |
| 2026-04-24 20:41 | 38.06250 | 35.89837 | 27007 ft | 434 kts | 139° |
| 2026-04-24 20:41 | 38.04251 | 35.92708 | 27019 ft | 433 kts | 139° |
| 2026-04-24 20:42 | 38.02281 | 35.95531 | 27026 ft | 433 kts | 139° |
| 2026-04-24 20:42 | 38.00285 | 35.98387 | 27032 ft | 432 kts | 139° |
| 2026-04-24 20:42 | 37.98295 | 36.01237 | 27030 ft | 432 kts | 139° |
| 2026-04-24 20:42 | 37.96305 | 36.04088 | 27030 ft | 431 kts | 139° |
| 2026-04-24 20:43 | 37.94320 | 36.06931 | 27021 ft | 431 kts | 139° |
| 2026-04-24 20:43 | 37.92328 | 36.09777 | 27027 ft | 431 kts | 139° |
| 2026-04-24 20:43 | 37.90339 | 36.12612 | 27027 ft | 431 kts | 139° |
| 2026-04-24 20:43 | 37.88347 | 36.15450 | 27021 ft | 431 kts | 139° |
| 2026-04-24 20:44 | 37.86355 | 36.18287 | 27024 ft | 431 kts | 139° |
| 2026-04-24 20:44 | 37.84356 | 36.21131 | 27022 ft | 431 kts | 139° |
| 2026-04-24 20:44 | 37.82365 | 36.23961 | 27020 ft | 431 kts | 139° |
| 2026-04-24 20:44 | 37.80371 | 36.26797 | 27001 ft | 430 kts | 139° |
| 2026-04-24 20:45 | 37.78386 | 36.29620 | 27014 ft | 430 kts | 139° |
| 2026-04-24 20:45 | 37.76403 | 36.32444 | 27017 ft | 430 kts | 139° |
| 2026-04-24 20:45 | 37.74418 | 36.35272 | 27019 ft | 430 kts | 139° |
| 2026-04-24 20:45 | 37.72437 | 36.38094 | 27022 ft | 430 kts | 139° |
| 2026-04-24 20:46 | 37.70452 | 36.40914 | 27020 ft | 429 kts | 139° |
| 2026-04-24 20:46 | 37.68472 | 36.43724 | 26938 ft | 425 kts | 139° |
| 2026-04-24 20:46 | 37.66511 | 36.46505 | 26453 ft | 422 kts | 139° |
| 2026-04-24 20:46 | 37.64562 | 36.49263 | 26056 ft | 418 kts | 139° |
| 2026-04-24 20:47 | 37.62653 | 36.51965 | 25626 ft | 406 kts | 139° |
| 2026-04-24 20:47 | 37.60804 | 36.54589 | 25228 ft | 397 kts | 139° |
| 2026-04-24 20:47 | 37.58970 | 36.57182 | 24814 ft | 395 kts | 139° |
| 2026-04-24 20:47 | 37.57141 | 36.59759 | 24384 ft | 394 kts | 139° |
| 2026-04-24 20:48 | 37.55319 | 36.62318 | 23966 ft | 391 kts | 139° |
| 2026-04-24 20:48 | 37.53500 | 36.64868 | 23521 ft | 390 kts | 139° |
| 2026-04-24 20:48 | 37.51694 | 36.67403 | 23046 ft | 387 kts | 139° |
| 2026-04-24 20:48 | 37.49930 | 36.69885 | 22625 ft | 384 kts | 138° |
| 2026-04-24 20:49 | 37.48161 | 36.72396 | 22183 ft | 381 kts | 137° |
| 2026-04-24 20:49 | 37.46394 | 36.74927 | 21739 ft | 378 kts | 137° |
| 2026-04-24 20:49 | 37.44693 | 36.77372 | 21331 ft | 375 kts | 137° |
| 2026-04-24 20:49 | 37.42984 | 36.79826 | 20911 ft | 373 kts | 137° |
| 2026-04-24 20:50 | 37.41271 | 36.82275 | 20484 ft | 371 kts | 137° |
| 2026-04-24 20:50 | 37.39573 | 36.84697 | 20048 ft | 368 kts | 137° |
| 2026-04-24 20:50 | 37.37883 | 36.87107 | 19637 ft | 367 kts | 137° |
| 2026-04-24 20:50 | 37.36196 | 36.89506 | 19213 ft | 365 kts | 137° |
| 2026-04-24 20:51 | 37.34514 | 36.91894 | 18791 ft | 364 kts | 137° |
| 2026-04-24 20:51 | 37.32835 | 36.94277 | 18366 ft | 363 kts | 136° |
| 2026-04-24 20:51 | 37.31161 | 36.96652 | 17910 ft | 362 kts | 136° |
| 2026-04-24 20:51 | 37.29494 | 36.99017 | 17484 ft | 360 kts | 136° |
| 2026-04-24 20:52 | 37.27844 | 37.01362 | 17055 ft | 357 kts | 137° |
| 2026-04-24 20:52 | 37.26209 | 37.03686 | 16655 ft | 354 kts | 137° |
| 2026-04-24 20:52 | 37.24541 | 37.05934 | 16245 ft | 350 kts | 140° |
| 2026-04-24 20:52 | 37.22815 | 37.08081 | 15834 ft | 347 kts | 141° |
| 2026-04-24 20:53 | 37.21070 | 37.10162 | 15431 ft | 345 kts | 142° |
| 2026-04-24 20:53 | 37.19329 | 37.12214 | 15032 ft | 343 kts | 142° |
| 2026-04-24 20:53 | 37.17595 | 37.14260 | 14627 ft | 342 kts | 142° |
| 2026-04-24 20:53 | 37.15873 | 37.16309 | 14228 ft | 341 kts | 142° |
| 2026-04-24 20:54 | 37.14166 | 37.18355 | 13825 ft | 340 kts | 141° |
| 2026-04-24 20:54 | 37.12462 | 37.20410 | 13403 ft | 339 kts | 140° |
| 2026-04-24 20:54 | 37.10993 | 37.22738 | 12992 ft | 344 kts | 124° |
| 2026-04-24 20:54 | 37.10020 | 37.25478 | 12662 ft | 345 kts | 109° |
| 2026-04-24 20:55 | 37.09408 | 37.28359 | 12342 ft | 341 kts | 107° |
| 2026-04-24 20:55 | 37.08801 | 37.31224 | 12021 ft | 338 kts | 108° |
| 2026-04-24 20:55 | 37.08205 | 37.34006 | 11706 ft | 334 kts | 108° |
| 2026-04-24 20:55 | 37.07601 | 37.36805 | 11392 ft | 331 kts | 108° |
| 2026-04-24 20:56 | 37.07003 | 37.39574 | 11081 ft | 328 kts | 108° |
| 2026-04-24 20:56 | 37.06408 | 37.42323 | 10774 ft | 326 kts | 108° |
| 2026-04-24 20:56 | 37.05818 | 37.45053 | 10465 ft | 323 kts | 108° |
| 2026-04-24 20:56 | 37.05235 | 37.47757 | 10205 ft | 319 kts | 108° |
| 2026-04-24 20:57 | 37.04660 | 37.50423 | 9851 ft | 318 kts | 108° |
| 2026-04-24 20:57 | 37.04085 | 37.53085 | 9530 ft | 315 kts | 108° |
| 2026-04-24 20:57 | 37.03514 | 37.55726 | 9169 ft | 314 kts | 108° |
| 2026-04-24 20:57 | 37.02947 | 37.58343 | 8836 ft | 312 kts | 107° |
| 2026-04-24 20:58 | 37.02381 | 37.60954 | 8530 ft | 307 kts | 107° |
| 2026-04-24 20:58 | 37.01824 | 37.63509 | 8018 ft | 302 kts | 107° |
| 2026-04-24 20:58 | 37.01275 | 37.66026 | 7632 ft | 299 kts | 107° |
| 2026-04-24 20:58 | 37.00727 | 37.68526 | 7251 ft | 295 kts | 107° |
| 2026-04-24 20:59 | 36.99885 | 37.70779 | 6899 ft | 280 kts | 133° |
| 2026-04-24 20:59 | 36.98402 | 37.72201 | 6556 ft | 263 kts | 162° |
| 2026-04-24 20:59 | 36.96670 | 37.72608 | 6211 ft | 248 kts | 185° |
| 2026-04-24 20:59 | 36.95015 | 37.72294 | 5760 ft | 239 kts | 202° |
| 2026-04-24 21:00 | 36.93558 | 37.71401 | 5432 ft | 226 kts | 219° |
| 2026-04-24 21:00 | 36.92449 | 37.70124 | 5319 ft | 208 kts | 234° |
| 2026-04-24 21:00 | 36.91698 | 37.68649 | 5188 ft | 195 kts | 248° |
| 2026-04-24 21:00 | 36.91283 | 37.67119 | 5022 ft | 178 kts | 260° |
| 2026-04-24 21:01 | 36.91159 | 37.65666 | 4834 ft | 159 kts | 271° |
| 2026-04-24 21:01 | 36.91262 | 37.64343 | 4645 ft | 149 kts | 282° |
| 2026-04-24 21:01 | 36.91513 | 37.63122 | 4469 ft | 143 kts | 286° |
| 2026-04-24 21:01 | 36.91766 | 37.61952 | 4282 ft | 141 kts | 286° |
| 2026-04-24 21:02 | 36.92023 | 37.60762 | 4102 ft | 139 kts | 286° |
| 2026-04-24 21:02 | 36.92272 | 37.59611 | 3915 ft | 138 kts | 287° |
| 2026-04-24 21:02 | 36.92523 | 37.58449 | 3734 ft | 139 kts | 287° |
| 2026-04-24 21:02 | 36.92774 | 37.57290 | 3555 ft | 138 kts | 287° |
| 2026-04-24 21:03 | 36.93023 | 37.56134 | 3382 ft | 137 kts | 287° |
| 2026-04-24 21:03 | 36.93273 | 37.54976 | 3188 ft | 138 kts | 288° |
| 2026-04-24 21:03 | 36.93524 | 37.53822 | 2985 ft | 138 kts | 287° |
| 2026-04-24 21:03 | 36.93772 | 37.52654 | 2793 ft | 140 kts | 285° |
| 2026-04-24 21:04 | 36.94014 | 37.51472 | 2602 ft | 141 kts | 285° |
| 2026-04-24 21:04 | 36.94270 | 37.50282 | 2427 ft | 142 kts | 285° |
| 2026-04-24 21:04 | 36.94524 | 37.49095 | 2265 ft | 140 kts | 284° |
| 2026-04-24 21:04 | 36.94763 | 37.48028 | 2264 ft | 106 kts | 286° |
| 2026-04-24 21:05 | 36.94903 | 37.47384 | 2283 ft | 28 kts | 285° |
| 2026-04-24 21:05 | 36.94935 | 37.47237 | 2296 ft | 17 kts | 285° |
| 2026-04-24 21:05 | 36.94885 | 37.47132 | 2293 ft | 16 kts | 198° |
| 2026-04-24 21:05 | 36.94827 | 37.47112 | 2297 ft | 1 kts | 193° |
| 2026-04-24 21:06 | 36.94808 | 37.47121 | 2294 ft | 5 kts | 146° |
| 2026-04-24 21:06 | 36.94784 | 37.47194 | 2291 ft | 12 kts | 106° |
| 2026-04-24 21:06 | 36.94756 | 37.47313 | 2282 ft | 17 kts | 106° |
| 2026-04-24 21:06 | 36.94707 | 37.47436 | 2278 ft | 13 kts | 169° |
| 2026-04-24 21:07 | 36.94644 | 37.47499 | 2276 ft | 15 kts | 105° |
| 2026-04-24 21:07 | 36.94606 | 37.47532 | 2275 ft | 2 kts | 192° |
| 2026-04-24 21:07 | 36.94583 | 37.47532 | 2275 ft | 4 kts | 185° |
| 2026-04-24 21:07 | 36.94568 | 37.47535 | 2274 ft | 3 kts | 164° |
| 2026-04-24 21:08 | 36.94562 | 37.47537 | 2274 ft | 0 kts | 164° |